sensor_id;sensor_type;location;lat;lon;timestamp;P1;durP1;ratioP1;P2;durP2;ratioP2
49590;SDS011;35496;-21.974;-46.800;2022-12-29T00:00:07;1.27;;;1.00;;
49590;SDS011;35496;-21.974;-46.800;2022-12-29T00:02:36;0.80;;;0.65;;
49590;SDS011;35496;-21.974;-46.800;2022-12-29T00:05:02;2.00;;;0.68;;
49590;SDS011;35496;-21.974;-46.800;2022-12-29T00:07:29;2.13;;;1.05;;
49590;SDS011;35496;-21.974;-46.800;2022-12-29T00:09:56;1.88;;;1.27;;
49590;SDS011;35496;-21.974;-46.800;2022-12-29T00:12:22;1.60;;;1.30;;
49590;SDS011;35496;-21.974;-46.800;2022-12-29T00:14:49;1.38;;;0.60;;
49590;SDS011;35496;-21.974;-46.800;2022-12-29T00:17:33;0.80;;;0.80;;
49590;SDS011;35496;-21.974;-46.800;2022-12-29T00:20:00;0.60;;;0.60;;
49590;SDS011;35496;-21.974;-46.800;2022-12-29T00:22:45;1.88;;;1.00;;
49590;SDS011;35496;-21.974;-46.800;2022-12-29T00:25:30;1.70;;;1.00;;
49590;SDS011;35496;-21.974;-46.800;2022-12-29T00:28:15;1.40;;;1.15;;
49590;SDS011;35496;-21.974;-46.800;2022-12-29T00:31:00;1.33;;;0.95;;
49590;SDS011;35496;-21.974;-46.800;2022-12-29T00:33:45;1.08;;;0.85;;
49590;SDS011;35496;-21.974;-46.800;2022-12-29T00:36:31;1.75;;;1.15;;
49590;SDS011;35496;-21.974;-46.800;2022-12-29T00:39:03;1.52;;;1.42;;
49590;SDS011;35496;-21.974;-46.800;2022-12-29T00:41:54;1.35;;;0.80;;
49590;SDS011;35496;-21.974;-46.800;2022-12-29T00:44:39;0.85;;;0.85;;
49590;SDS011;35496;-21.974;-46.800;2022-12-29T00:47:05;2.20;;;1.38;;
49590;SDS011;35496;-21.974;-46.800;2022-12-29T00:49:32;2.53;;;1.02;;
49590;SDS011;35496;-21.974;-46.800;2022-12-29T00:52:05;1.58;;;1.05;;
49590;SDS011;35496;-21.974;-46.800;2022-12-29T00:54:34;1.25;;;1.15;;
49590;SDS011;35496;-21.974;-46.800;2022-12-29T00:57:03;1.45;;;1.35;;
49590;SDS011;35496;-21.974;-46.800;2022-12-29T00:59:31;4.68;;;1.20;;
49590;SDS011;35496;-21.974;-46.800;2022-12-29T01:02:00;1.95;;;1.15;;
49590;SDS011;35496;-21.974;-46.800;2022-12-29T01:04:27;0.63;;;0.63;;
49590;SDS011;35496;-21.974;-46.800;2022-12-29T01:06:54;0.98;;;0.93;;
49590;SDS011;35496;-21.974;-46.800;2022-12-29T01:09:20;10.77;;;1.98;;
49590;SDS011;35496;-21.974;-46.800;2022-12-29T01:12:05;2.08;;;1.67;;
49590;SDS011;35496;-21.974;-46.800;2022-12-29T01:17:38;1.42;;;1.17;;
49590;SDS011;35496;-21.974;-46.800;2022-12-29T01:20:05;3.95;;;1.85;;
49590;SDS011;35496;-21.974;-46.800;2022-12-29T01:22:32;1.73;;;1.38;;
49590;SDS011;35496;-21.974;-46.800;2022-12-29T01:24:59;1.33;;;1.23;;
49590;SDS011;35496;-21.974;-46.800;2022-12-29T01:27:26;1.40;;;1.30;;
49590;SDS011;35496;-21.974;-46.800;2022-12-29T01:29:52;2.65;;;1.83;;
49590;SDS011;35496;-21.974;-46.800;2022-12-29T01:32:19;4.57;;;1.98;;
49590;SDS011;35496;-21.974;-46.800;2022-12-29T01:34:46;1.05;;;1.00;;
49590;SDS011;35496;-21.974;-46.800;2022-12-29T01:37:12;2.42;;;1.10;;
49590;SDS011;35496;-21.974;-46.800;2022-12-29T01:39:39;1.17;;;1.17;;
49590;SDS011;35496;-21.974;-46.800;2022-12-29T01:42:08;0.68;;;0.52;;
49590;SDS011;35496;-21.974;-46.800;2022-12-29T01:44:52;1.10;;;0.82;;
49590;SDS011;35496;-21.974;-46.800;2022-12-29T01:49:50;1.20;;;0.77;;
49590;SDS011;35496;-21.974;-46.800;2022-12-29T01:52:20;1.65;;;0.80;;
49590;SDS011;35496;-21.974;-46.800;2022-12-29T01:54:49;2.70;;;1.35;;
49590;SDS011;35496;-21.974;-46.800;2022-12-29T01:57:25;2.55;;;1.13;;
49590;SDS011;35496;-21.974;-46.800;2022-12-29T02:00:08;1.85;;;1.15;;
49590;SDS011;35496;-21.974;-46.800;2022-12-29T02:02:36;4.22;;;1.40;;
49590;SDS011;35496;-21.974;-46.800;2022-12-29T02:05:10;1.33;;;1.30;;
49590;SDS011;35496;-21.974;-46.800;2022-12-29T02:07:44;4.63;;;1.45;;
49590;SDS011;35496;-21.974;-46.800;2022-12-29T02:10:12;1.23;;;1.13;;
49590;SDS011;35496;-21.974;-46.800;2022-12-29T02:12:39;3.63;;;1.50;;
49590;SDS011;35496;-21.974;-46.800;2022-12-29T02:15:06;2.75;;;1.67;;
49590;SDS011;35496;-21.974;-46.800;2022-12-29T02:20:59;3.75;;;1.48;;
49590;SDS011;35496;-21.974;-46.800;2022-12-29T02:26:24;1.90;;;1.80;;
49590;SDS011;35496;-21.974;-46.800;2022-12-29T02:29:02;7.90;;;2.08;;
49590;SDS011;35496;-21.974;-46.800;2022-12-29T02:31:52;2.08;;;1.55;;
49590;SDS011;35496;-21.974;-46.800;2022-12-29T02:35:07;2.35;;;2.15;;
49590;SDS011;35496;-21.974;-46.800;2022-12-29T02:37:17;4.10;;;2.28;;
49590;SDS011;35496;-21.974;-46.800;2022-12-29T02:48:18;2.83;;;2.25;;
49590;SDS011;35496;-21.974;-46.800;2022-12-29T02:51:20;4.22;;;3.30;;
49590;SDS011;35496;-21.974;-46.800;2022-12-29T02:53:54;7.00;;;3.30;;
49590;SDS011;35496;-21.974;-46.800;2022-12-29T02:56:40;6.82;;;4.00;;
49590;SDS011;35496;-21.974;-46.800;2022-12-29T02:59:07;3.38;;;3.05;;
49590;SDS011;35496;-21.974;-46.800;2022-12-29T03:10:38;4.55;;;4.13;;
49590;SDS011;35496;-21.974;-46.800;2022-12-29T03:18:51;4.93;;;3.33;;
49590;SDS011;35496;-21.974;-46.800;2022-12-29T03:24:12;4.25;;;2.85;;
49590;SDS011;35496;-21.974;-46.800;2022-12-29T03:26:41;3.40;;;3.03;;
49590;SDS011;35496;-21.974;-46.800;2022-12-29T03:32:17;4.20;;;2.80;;
49590;SDS011;35496;-21.974;-46.800;2022-12-29T03:34:47;6.45;;;3.78;;
49590;SDS011;35496;-21.974;-46.800;2022-12-29T03:37:17;5.60;;;3.42;;
49590;SDS011;35496;-21.974;-46.800;2022-12-29T03:39:48;3.13;;;2.50;;
49590;SDS011;35496;-21.974;-46.800;2022-12-29T03:42:16;4.22;;;3.83;;
49590;SDS011;35496;-21.974;-46.800;2022-12-29T03:44:47;5.55;;;3.35;;
49590;SDS011;35496;-21.974;-46.800;2022-12-29T03:47:14;4.72;;;3.58;;
49590;SDS011;35496;-21.974;-46.800;2022-12-29T03:49:41;4.93;;;3.38;;
49590;SDS011;35496;-21.974;-46.800;2022-12-29T03:52:07;4.07;;;3.25;;
49590;SDS011;35496;-21.974;-46.800;2022-12-29T03:54:34;6.07;;;3.80;;
49590;SDS011;35496;-21.974;-46.800;2022-12-29T03:57:01;4.18;;;3.78;;
49590;SDS011;35496;-21.974;-46.800;2022-12-29T03:59:27;4.15;;;3.60;;
49590;SDS011;35496;-21.974;-46.800;2022-12-29T04:01:54;7.22;;;3.75;;
49590;SDS011;35496;-21.974;-46.800;2022-12-29T04:04:20;6.53;;;3.35;;
49590;SDS011;35496;-21.974;-46.800;2022-12-29T04:06:47;4.90;;;3.85;;
49590;SDS011;35496;-21.974;-46.800;2022-12-29T04:09:14;5.63;;;3.80;;
49590;SDS011;35496;-21.974;-46.800;2022-12-29T04:11:41;4.93;;;3.78;;
49590;SDS011;35496;-21.974;-46.800;2022-12-29T04:14:07;7.40;;;2.97;;
49590;SDS011;35496;-21.974;-46.800;2022-12-29T04:16:34;4.63;;;3.20;;
49590;SDS011;35496;-21.974;-46.800;2022-12-29T04:19:04;4.18;;;3.55;;
49590;SDS011;35496;-21.974;-46.800;2022-12-29T04:21:32;5.97;;;3.45;;
49590;SDS011;35496;-21.974;-46.800;2022-12-29T04:23:59;4.53;;;3.28;;
49590;SDS011;35496;-21.974;-46.800;2022-12-29T04:26:26;6.72;;;3.53;;
49590;SDS011;35496;-21.974;-46.800;2022-12-29T04:28:52;4.28;;;3.88;;
49590;SDS011;35496;-21.974;-46.800;2022-12-29T04:31:19;4.50;;;3.53;;
49590;SDS011;35496;-21.974;-46.800;2022-12-29T04:33:46;4.20;;;3.13;;
49590;SDS011;35496;-21.974;-46.800;2022-12-29T04:36:12;11.77;;;3.53;;
49590;SDS011;35496;-21.974;-46.800;2022-12-29T04:38:39;4.32;;;2.83;;
49590;SDS011;35496;-21.974;-46.800;2022-12-29T04:41:05;4.85;;;2.92;;
49590;SDS011;35496;-21.974;-46.800;2022-12-29T04:43:33;2.25;;;1.90;;
49590;SDS011;35496;-21.974;-46.800;2022-12-29T04:45:59;3.08;;;2.25;;
49590;SDS011;35496;-21.974;-46.800;2022-12-29T04:48:26;7.20;;;3.20;;
49590;SDS011;35496;-21.974;-46.800;2022-12-29T04:50:53;5.55;;;3.03;;
49590;SDS011;35496;-21.974;-46.800;2022-12-29T04:53:19;4.88;;;2.95;;
49590;SDS011;35496;-21.974;-46.800;2022-12-29T04:55:50;2.65;;;2.05;;
49590;SDS011;35496;-21.974;-46.800;2022-12-29T04:58:18;4.20;;;2.97;;
49590;SDS011;35496;-21.974;-46.800;2022-12-29T05:00:45;3.25;;;2.95;;
49590;SDS011;35496;-21.974;-46.800;2022-12-29T05:03:12;3.38;;;3.05;;
49590;SDS011;35496;-21.974;-46.800;2022-12-29T05:05:39;3.95;;;3.00;;
49590;SDS011;35496;-21.974;-46.800;2022-12-29T05:08:06;4.90;;;3.15;;
49590;SDS011;35496;-21.974;-46.800;2022-12-29T05:10:33;2.75;;;2.28;;
49590;SDS011;35496;-21.974;-46.800;2022-12-29T05:12:59;5.18;;;2.88;;
49590;SDS011;35496;-21.974;-46.800;2022-12-29T05:15:26;6.97;;;3.38;;
49590;SDS011;35496;-21.974;-46.800;2022-12-29T05:17:53;8.70;;;2.50;;
49590;SDS011;35496;-21.974;-46.800;2022-12-29T05:20:19;4.22;;;2.50;;
49590;SDS011;35496;-21.974;-46.800;2022-12-29T05:22:46;4.57;;;2.47;;
49590;SDS011;35496;-21.974;-46.800;2022-12-29T05:25:13;12.20;;;3.30;;
49590;SDS011;35496;-21.974;-46.800;2022-12-29T05:27:39;2.95;;;2.03;;
49590;SDS011;35496;-21.974;-46.800;2022-12-29T05:30:06;5.15;;;3.38;;
49590;SDS011;35496;-21.974;-46.800;2022-12-29T05:32:34;5.13;;;3.72;;
49590;SDS011;35496;-21.974;-46.800;2022-12-29T05:35:00;13.07;;;3.50;;
49590;SDS011;35496;-21.974;-46.800;2022-12-29T05:37:27;5.63;;;1.92;;
49590;SDS011;35496;-21.974;-46.800;2022-12-29T05:39:54;3.40;;;2.50;;
49590;SDS011;35496;-21.974;-46.800;2022-12-29T05:42:20;3.40;;;3.10;;
49590;SDS011;35496;-21.974;-46.800;2022-12-29T05:44:47;3.38;;;2.35;;
49590;SDS011;35496;-21.974;-46.800;2022-12-29T05:47:17;3.85;;;2.80;;
49590;SDS011;35496;-21.974;-46.800;2022-12-29T05:49:44;3.95;;;2.33;;
49590;SDS011;35496;-21.974;-46.800;2022-12-29T05:52:10;4.55;;;2.75;;
49590;SDS011;35496;-21.974;-46.800;2022-12-29T05:54:37;3.97;;;3.15;;
49590;SDS011;35496;-21.974;-46.800;2022-12-29T05:57:03;3.33;;;2.38;;
49590;SDS011;35496;-21.974;-46.800;2022-12-29T05:59:30;17.08;;;3.75;;
49590;SDS011;35496;-21.974;-46.800;2022-12-29T06:01:57;7.35;;;3.45;;
49590;SDS011;35496;-21.974;-46.800;2022-12-29T06:04:23;7.85;;;3.53;;
49590;SDS011;35496;-21.974;-46.800;2022-12-29T06:06:50;5.63;;;3.38;;
49590;SDS011;35496;-21.974;-46.800;2022-12-29T06:09:16;5.18;;;3.40;;
49590;SDS011;35496;-21.974;-46.800;2022-12-29T06:11:43;7.20;;;2.70;;
49590;SDS011;35496;-21.974;-46.800;2022-12-29T06:14:10;8.35;;;3.78;;
49590;SDS011;35496;-21.974;-46.800;2022-12-29T06:16:36;3.58;;;2.60;;
49590;SDS011;35496;-21.974;-46.800;2022-12-29T06:19:03;5.22;;;2.67;;
49590;SDS011;35496;-21.974;-46.800;2022-12-29T06:21:30;4.35;;;2.58;;
49590;SDS011;35496;-21.974;-46.800;2022-12-29T06:23:56;3.08;;;2.42;;
49590;SDS011;35496;-21.974;-46.800;2022-12-29T06:26:23;4.88;;;3.10;;
49590;SDS011;35496;-21.974;-46.800;2022-12-29T06:28:49;3.67;;;3.00;;
49590;SDS011;35496;-21.974;-46.800;2022-12-29T06:31:16;7.95;;;3.40;;
49590;SDS011;35496;-21.974;-46.800;2022-12-29T06:33:43;5.70;;;3.10;;
49590;SDS011;35496;-21.974;-46.800;2022-12-29T06:36:09;9.05;;;3.67;;
49590;SDS011;35496;-21.974;-46.800;2022-12-29T06:38:36;11.63;;;4.20;;
49590;SDS011;35496;-21.974;-46.800;2022-12-29T06:41:03;7.60;;;4.53;;
49590;SDS011;35496;-21.974;-46.800;2022-12-29T06:43:33;9.88;;;4.47;;
49590;SDS011;35496;-21.974;-46.800;2022-12-29T06:46:01;7.82;;;4.63;;
49590;SDS011;35496;-21.974;-46.800;2022-12-29T06:48:27;5.32;;;4.35;;
49590;SDS011;35496;-21.974;-46.800;2022-12-29T06:50:54;9.55;;;3.83;;
49590;SDS011;35496;-21.974;-46.800;2022-12-29T06:53:21;6.05;;;3.97;;
49590;SDS011;35496;-21.974;-46.800;2022-12-29T06:55:47;5.70;;;4.05;;
49590;SDS011;35496;-21.974;-46.800;2022-12-29T06:58:14;6.07;;;4.30;;
49590;SDS011;35496;-21.974;-46.800;2022-12-29T07:00:41;6.38;;;4.22;;
49590;SDS011;35496;-21.974;-46.800;2022-12-29T07:03:07;4.88;;;4.05;;
49590;SDS011;35496;-21.974;-46.800;2022-12-29T07:05:34;4.43;;;3.15;;
49590;SDS011;35496;-21.974;-46.800;2022-12-29T07:08:01;5.22;;;3.45;;
49590;SDS011;35496;-21.974;-46.800;2022-12-29T07:10:28;7.35;;;4.80;;
49590;SDS011;35496;-21.974;-46.800;2022-12-29T07:12:54;5.47;;;3.38;;
49590;SDS011;35496;-21.974;-46.800;2022-12-29T07:15:21;7.18;;;4.93;;
49590;SDS011;35496;-21.974;-46.800;2022-12-29T07:17:48;7.85;;;4.38;;
49590;SDS011;35496;-21.974;-46.800;2022-12-29T07:20:17;6.35;;;4.35;;
49590;SDS011;35496;-21.974;-46.800;2022-12-29T07:22:44;7.07;;;4.78;;
49590;SDS011;35496;-21.974;-46.800;2022-12-29T07:25:12;11.38;;;4.88;;
49590;SDS011;35496;-21.974;-46.800;2022-12-29T07:27:39;9.23;;;4.28;;
49590;SDS011;35496;-21.974;-46.800;2022-12-29T07:30:06;8.50;;;5.22;;
49590;SDS011;35496;-21.974;-46.800;2022-12-29T07:32:33;7.85;;;4.82;;
49590;SDS011;35496;-21.974;-46.800;2022-12-29T07:35:00;5.32;;;4.22;;
49590;SDS011;35496;-21.974;-46.800;2022-12-29T07:37:27;7.00;;;4.18;;
49590;SDS011;35496;-21.974;-46.800;2022-12-29T07:39:54;5.20;;;4.65;;
49590;SDS011;35496;-21.974;-46.800;2022-12-29T07:42:20;5.22;;;4.65;;
49590;SDS011;35496;-21.974;-46.800;2022-12-29T07:44:47;9.07;;;5.13;;
49590;SDS011;35496;-21.974;-46.800;2022-12-29T07:47:13;7.75;;;4.15;;
49590;SDS011;35496;-21.974;-46.800;2022-12-29T07:49:40;6.55;;;4.57;;
49590;SDS011;35496;-21.974;-46.800;2022-12-29T07:52:07;11.88;;;5.75;;
49590;SDS011;35496;-21.974;-46.800;2022-12-29T07:54:33;8.65;;;4.47;;
49590;SDS011;35496;-21.974;-46.800;2022-12-29T07:57:00;9.77;;;5.35;;
49590;SDS011;35496;-21.974;-46.800;2022-12-29T07:59:27;7.75;;;3.63;;
49590;SDS011;35496;-21.974;-46.800;2022-12-29T08:01:53;3.33;;;1.98;;
49590;SDS011;35496;-21.974;-46.800;2022-12-29T08:04:20;2.83;;;1.70;;
49590;SDS011;35496;-21.974;-46.800;2022-12-29T08:06:47;3.67;;;2.38;;
49590;SDS011;35496;-21.974;-46.800;2022-12-29T08:09:13;4.90;;;3.58;;
49590;SDS011;35496;-21.974;-46.800;2022-12-29T08:11:40;7.70;;;3.20;;
49590;SDS011;35496;-21.974;-46.800;2022-12-29T08:14:08;22.92;;;5.38;;
49590;SDS011;35496;-21.974;-46.800;2022-12-29T08:16:35;7.57;;;3.35;;
49590;SDS011;35496;-21.974;-46.800;2022-12-29T08:19:01;7.40;;;3.28;;
49590;SDS011;35496;-21.974;-46.800;2022-12-29T08:21:30;3.22;;;2.00;;
49590;SDS011;35496;-21.974;-46.800;2022-12-29T08:23:56;2.05;;;1.13;;
49590;SDS011;35496;-21.974;-46.800;2022-12-29T08:26:24;1.88;;;1.77;;
49590;SDS011;35496;-21.974;-46.800;2022-12-29T08:28:54;0.90;;;0.70;;
49590;SDS011;35496;-21.974;-46.800;2022-12-29T08:31:22;1.48;;;1.38;;
49590;SDS011;35496;-21.974;-46.800;2022-12-29T08:33:49;1.88;;;1.02;;
49590;SDS011;35496;-21.974;-46.800;2022-12-29T08:36:16;2.00;;;0.93;;
49590;SDS011;35496;-21.974;-46.800;2022-12-29T08:38:43;2.90;;;1.25;;
49590;SDS011;35496;-21.974;-46.800;2022-12-29T08:41:09;2.92;;;1.00;;
49590;SDS011;35496;-21.974;-46.800;2022-12-29T08:43:36;1.15;;;0.85;;
49590;SDS011;35496;-21.974;-46.800;2022-12-29T08:46:03;0.80;;;0.80;;
49590;SDS011;35496;-21.974;-46.800;2022-12-29T08:48:29;1.75;;;1.30;;
49590;SDS011;35496;-21.974;-46.800;2022-12-29T08:50:56;1.00;;;0.98;;
49590;SDS011;35496;-21.974;-46.800;2022-12-29T08:53:22;1.25;;;1.13;;
49590;SDS011;35496;-21.974;-46.800;2022-12-29T08:55:54;1.33;;;0.95;;
49590;SDS011;35496;-21.974;-46.800;2022-12-29T08:58:22;1.48;;;1.10;;
49590;SDS011;35496;-21.974;-46.800;2022-12-29T09:00:51;2.05;;;1.75;;
49590;SDS011;35496;-21.974;-46.800;2022-12-29T09:03:21;3.13;;;2.17;;
49590;SDS011;35496;-21.974;-46.800;2022-12-29T09:05:52;19.38;;;2.47;;
49590;SDS011;35496;-21.974;-46.800;2022-12-29T09:08:20;5.03;;;1.50;;
49590;SDS011;35496;-21.974;-46.800;2022-12-29T09:10:48;3.03;;;1.65;;
49590;SDS011;35496;-21.974;-46.800;2022-12-29T09:13:15;30.25;;;2.28;;
49590;SDS011;35496;-21.974;-46.800;2022-12-29T09:15:43;3.97;;;1.70;;
49590;SDS011;35496;-21.974;-46.800;2022-12-29T09:18:10;9.10;;;2.25;;
49590;SDS011;35496;-21.974;-46.800;2022-12-29T09:20:37;6.63;;;2.72;;
49590;SDS011;35496;-21.974;-46.800;2022-12-29T09:23:04;3.30;;;1.40;;
49590;SDS011;35496;-21.974;-46.800;2022-12-29T09:25:34;3.65;;;1.67;;
49590;SDS011;35496;-21.974;-46.800;2022-12-29T09:28:00;2.92;;;2.13;;
49590;SDS011;35496;-21.974;-46.800;2022-12-29T09:33:53;2.35;;;1.90;;
49590;SDS011;35496;-21.974;-46.800;2022-12-29T09:36:19;2.13;;;1.30;;
49590;SDS011;35496;-21.974;-46.800;2022-12-29T09:38:46;2.25;;;1.75;;
49590;SDS011;35496;-21.974;-46.800;2022-12-29T09:41:14;8.77;;;2.03;;
49590;SDS011;35496;-21.974;-46.800;2022-12-29T09:46:25;3.95;;;1.40;;
49590;SDS011;35496;-21.974;-46.800;2022-12-29T09:51:43;2.72;;;1.40;;
49590;SDS011;35496;-21.974;-46.800;2022-12-29T09:57:02;1.67;;;1.13;;
49590;SDS011;35496;-21.974;-46.800;2022-12-29T09:59:38;1.08;;;1.08;;
49590;SDS011;35496;-21.974;-46.800;2022-12-29T10:04:58;3.38;;;1.77;;
49590;SDS011;35496;-21.974;-46.800;2022-12-29T10:16:05;5.30;;;1.38;;
49590;SDS011;35496;-21.974;-46.800;2022-12-29T10:18:46;1.85;;;1.10;;
49590;SDS011;35496;-21.974;-46.800;2022-12-29T10:21:39;3.65;;;1.52;;
49590;SDS011;35496;-21.974;-46.800;2022-12-29T10:24:26;1.63;;;1.30;;
49590;SDS011;35496;-21.974;-46.800;2022-12-29T10:26:55;2.17;;;1.20;;
49590;SDS011;35496;-21.974;-46.800;2022-12-29T10:29:32;0.98;;;0.85;;
49590;SDS011;35496;-21.974;-46.800;2022-12-29T10:32:13;5.53;;;1.58;;
49590;SDS011;35496;-21.974;-46.800;2022-12-29T10:35:05;2.08;;;0.82;;
49590;SDS011;35496;-21.974;-46.800;2022-12-29T10:37:52;0.60;;;0.50;;
49590;SDS011;35496;-21.974;-46.800;2022-12-29T10:40:24;1.10;;;0.73;;
49590;SDS011;35496;-21.974;-46.800;2022-12-29T10:42:55;13.60;;;1.27;;
49590;SDS011;35496;-21.974;-46.800;2022-12-29T10:45:28;1.70;;;1.00;;
49590;SDS011;35496;-21.974;-46.800;2022-12-29T10:48:04;0.98;;;0.88;;
49590;SDS011;35496;-21.974;-46.800;2022-12-29T10:50:38;1.88;;;0.82;;
49590;SDS011;35496;-21.974;-46.800;2022-12-29T10:53:08;2.83;;;1.00;;
49590;SDS011;35496;-21.974;-46.800;2022-12-29T10:55:44;3.08;;;0.95;;
49590;SDS011;35496;-21.974;-46.800;2022-12-29T10:58:13;0.95;;;0.65;;
49590;SDS011;35496;-21.974;-46.800;2022-12-29T11:00:41;0.47;;;0.47;;
49590;SDS011;35496;-21.974;-46.800;2022-12-29T11:05:57;0.63;;;0.40;;
49590;SDS011;35496;-21.974;-46.800;2022-12-29T11:08:55;0.95;;;0.90;;
49590;SDS011;35496;-21.974;-46.800;2022-12-29T11:11:34;2.25;;;0.98;;
49590;SDS011;35496;-21.974;-46.800;2022-12-29T11:14:12;1.77;;;0.55;;
49590;SDS011;35496;-21.974;-46.800;2022-12-29T11:16:41;0.70;;;0.60;;
49590;SDS011;35496;-21.974;-46.800;2022-12-29T11:19:28;1.55;;;1.05;;
49590;SDS011;35496;-21.974;-46.800;2022-12-29T11:27:19;0.43;;;0.43;;
49590;SDS011;35496;-21.974;-46.800;2022-12-29T11:29:48;1.10;;;0.17;;
49590;SDS011;35496;-21.974;-46.800;2022-12-29T11:32:18;0.65;;;0.60;;
49590;SDS011;35496;-21.974;-46.800;2022-12-29T11:37:57;0.82;;;0.57;;
49590;SDS011;35496;-21.974;-46.800;2022-12-29T11:40:24;0.95;;;0.63;;
49590;SDS011;35496;-21.974;-46.800;2022-12-29T11:42:52;1.38;;;0.40;;
49590;SDS011;35496;-21.974;-46.800;2022-12-29T11:45:22;0.20;;;0.20;;
49590;SDS011;35496;-21.974;-46.800;2022-12-29T11:47:58;0.63;;;0.20;;
49590;SDS011;35496;-21.974;-46.800;2022-12-29T11:50:34;0.40;;;0.40;;
49590;SDS011;35496;-21.974;-46.800;2022-12-29T11:53:07;0.52;;;0.52;;
49590;SDS011;35496;-21.974;-46.800;2022-12-29T11:55:53;0.13;;;0.00;;
49590;SDS011;35496;-21.974;-46.800;2022-12-29T11:58:31;0.05;;;0.05;;
49590;SDS011;35496;-21.974;-46.800;2022-12-29T12:01:00;0.20;;;0.10;;
49590;SDS011;35496;-21.974;-46.800;2022-12-29T12:04:00;0.13;;;0.10;;
49590;SDS011;35496;-21.974;-46.800;2022-12-29T12:06:27;0.10;;;0.10;;
49590;SDS011;35496;-21.974;-46.800;2022-12-29T12:09:10;0.65;;;0.22;;
49590;SDS011;35496;-21.974;-46.800;2022-12-29T12:11:48;0.43;;;0.43;;
49590;SDS011;35496;-21.974;-46.800;2022-12-29T12:17:19;0.10;;;0.10;;
49590;SDS011;35496;-21.974;-46.800;2022-12-29T12:20:17;0.13;;;0.13;;
49590;SDS011;35496;-21.974;-46.800;2022-12-29T12:23:06;0.20;;;0.20;;
49590;SDS011;35496;-21.974;-46.800;2022-12-29T12:31:25;2.20;;;0.30;;
49590;SDS011;35496;-21.974;-46.800;2022-12-29T12:34:06;0.25;;;0.20;;
49590;SDS011;35496;-21.974;-46.800;2022-12-29T12:39:33;0.20;;;0.20;;
49590;SDS011;35496;-21.974;-46.800;2022-12-29T12:47:41;0.70;;;0.45;;
49590;SDS011;35496;-21.974;-46.800;2022-12-29T12:50:22;0.45;;;0.13;;
49590;SDS011;35496;-21.974;-46.800;2022-12-29T12:53:35;0.30;;;0.30;;
49590;SDS011;35496;-21.974;-46.800;2022-12-29T13:04:52;0.80;;;0.47;;
49590;SDS011;35496;-21.974;-46.800;2022-12-29T13:07:34;0.35;;;0.25;;
49590;SDS011;35496;-21.974;-46.800;2022-12-29T13:10:18;0.10;;;0.10;;
49590;SDS011;35496;-21.974;-46.800;2022-12-29T13:13:17;0.20;;;0.20;;
49590;SDS011;35496;-21.974;-46.800;2022-12-29T13:26:42;0.57;;;0.13;;
49590;SDS011;35496;-21.974;-46.800;2022-12-29T13:37:50;0.57;;;0.50;;
49590;SDS011;35496;-21.974;-46.800;2022-12-29T13:43:08;0.30;;;0.30;;
49590;SDS011;35496;-21.974;-46.800;2022-12-29T13:45:37;0.22;;;0.17;;
49590;SDS011;35496;-21.974;-46.800;2022-12-29T13:48:07;0.30;;;0.30;;
49590;SDS011;35496;-21.974;-46.800;2022-12-29T13:50:51;0.20;;;0.20;;
49590;SDS011;35496;-21.974;-46.800;2022-12-29T13:56:19;0.15;;;0.10;;
49590;SDS011;35496;-21.974;-46.800;2022-12-29T13:58:58;0.13;;;0.13;;
49590;SDS011;35496;-21.974;-46.800;2022-12-29T14:04:22;0.70;;;0.43;;
49590;SDS011;35496;-21.974;-46.800;2022-12-29T14:07:12;0.20;;;0.20;;
49590;SDS011;35496;-21.974;-46.800;2022-12-29T14:09:48;0.08;;;0.08;;
49590;SDS011;35496;-21.974;-46.800;2022-12-29T14:12:27;0.10;;;0.10;;
49590;SDS011;35496;-21.974;-46.800;2022-12-29T14:17:36;1.45;;;0.25;;
49590;SDS011;35496;-21.974;-46.800;2022-12-29T14:20:05;0.10;;;0.10;;
49590;SDS011;35496;-21.974;-46.800;2022-12-29T14:28:36;0.10;;;0.00;;
49590;SDS011;35496;-21.974;-46.800;2022-12-29T14:31:51;0.10;;;0.10;;
49590;SDS011;35496;-21.974;-46.800;2022-12-29T14:36:38;0.88;;;0.08;;
49590;SDS011;35496;-21.974;-46.800;2022-12-29T14:42:12;0.38;;;0.10;;
49590;SDS011;35496;-21.974;-46.800;2022-12-29T14:52:20;0.22;;;0.10;;
49590;SDS011;35496;-21.974;-46.800;2022-12-29T14:57:42;0.10;;;0.10;;
49590;SDS011;35496;-21.974;-46.800;2022-12-29T15:02:50;0.38;;;0.00;;
49590;SDS011;35496;-21.974;-46.800;2022-12-29T15:05:32;0.40;;;0.30;;
49590;SDS011;35496;-21.974;-46.800;2022-12-29T15:08:23;0.10;;;0.10;;
49590;SDS011;35496;-21.974;-46.800;2022-12-29T15:11:01;0.28;;;0.20;;
49590;SDS011;35496;-21.974;-46.800;2022-12-29T15:13:36;1.20;;;0.10;;
49590;SDS011;35496;-21.974;-46.800;2022-12-29T15:19:01;0.10;;;0.10;;
49590;SDS011;35496;-21.974;-46.800;2022-12-29T15:21:34;0.35;;;0.10;;
49590;SDS011;35496;-21.974;-46.800;2022-12-29T15:24:02;0.20;;;0.20;;
49590;SDS011;35496;-21.974;-46.800;2022-12-29T15:26:39;0.05;;;0.05;;
49590;SDS011;35496;-21.974;-46.800;2022-12-29T15:32:09;0.00;;;0.00;;
49590;SDS011;35496;-21.974;-46.800;2022-12-29T15:34:41;0.05;;;0.05;;
49590;SDS011;35496;-21.974;-46.800;2022-12-29T15:37:08;0.10;;;0.10;;
49590;SDS011;35496;-21.974;-46.800;2022-12-29T15:39:35;0.05;;;0.05;;
49590;SDS011;35496;-21.974;-46.800;2022-12-29T15:42:07;0.25;;;0.25;;
49590;SDS011;35496;-21.974;-46.800;2022-12-29T15:44:52;0.17;;;0.17;;
49590;SDS011;35496;-21.974;-46.800;2022-12-29T15:47:20;0.20;;;0.20;;
49590;SDS011;35496;-21.974;-46.800;2022-12-29T15:49:49;0.55;;;0.20;;
49590;SDS011;35496;-21.974;-46.800;2022-12-29T15:52:25;0.43;;;0.43;;
49590;SDS011;35496;-21.974;-46.800;2022-12-29T15:54:54;1.52;;;0.40;;
49590;SDS011;35496;-21.974;-46.800;2022-12-29T15:57:25;0.20;;;0.20;;
49590;SDS011;35496;-21.974;-46.800;2022-12-29T15:59:53;0.22;;;0.22;;
49590;SDS011;35496;-21.974;-46.800;2022-12-29T16:02:20;0.45;;;0.30;;
49590;SDS011;35496;-21.974;-46.800;2022-12-29T16:04:48;0.28;;;0.20;;
49590;SDS011;35496;-21.974;-46.800;2022-12-29T16:07:24;0.68;;;0.68;;
49590;SDS011;35496;-21.974;-46.800;2022-12-29T16:09:58;0.17;;;0.17;;
49590;SDS011;35496;-21.974;-46.800;2022-12-29T16:12:31;0.95;;;0.32;;
49590;SDS011;35496;-21.974;-46.800;2022-12-29T16:15:01;0.30;;;0.30;;
49590;SDS011;35496;-21.974;-46.800;2022-12-29T16:17:31;0.32;;;0.30;;
49590;SDS011;35496;-21.974;-46.800;2022-12-29T16:20:04;0.50;;;0.40;;
49590;SDS011;35496;-21.974;-46.800;2022-12-29T16:22:49;0.20;;;0.20;;
49590;SDS011;35496;-21.974;-46.800;2022-12-29T16:27:54;0.20;;;0.20;;
49590;SDS011;35496;-21.974;-46.800;2022-12-29T16:30:25;0.45;;;0.40;;
49590;SDS011;35496;-21.974;-46.800;2022-12-29T16:32:58;1.13;;;1.02;;
49590;SDS011;35496;-21.974;-46.800;2022-12-29T16:35:27;1.05;;;0.55;;
49590;SDS011;35496;-21.974;-46.800;2022-12-29T16:38:18;0.35;;;0.30;;
49590;SDS011;35496;-21.974;-46.800;2022-12-29T16:43:30;0.90;;;0.88;;
49590;SDS011;35496;-21.974;-46.800;2022-12-29T16:48:27;0.57;;;0.40;;
49590;SDS011;35496;-21.974;-46.800;2022-12-29T16:51:29;0.43;;;0.30;;
49590;SDS011;35496;-21.974;-46.800;2022-12-29T16:53:57;0.20;;;0.20;;
49590;SDS011;35496;-21.974;-46.800;2022-12-29T16:56:27;0.28;;;0.28;;
49590;SDS011;35496;-21.974;-46.800;2022-12-29T16:59:02;0.25;;;0.25;;
49590;SDS011;35496;-21.974;-46.800;2022-12-29T17:01:37;0.25;;;0.25;;
49590;SDS011;35496;-21.974;-46.800;2022-12-29T17:04:05;0.30;;;0.30;;
49590;SDS011;35496;-21.974;-46.800;2022-12-29T17:06:34;0.30;;;0.30;;
49590;SDS011;35496;-21.974;-46.800;2022-12-29T17:09:01;0.35;;;0.35;;
49590;SDS011;35496;-21.974;-46.800;2022-12-29T17:11:32;0.20;;;0.20;;
49590;SDS011;35496;-21.974;-46.800;2022-12-29T17:17:03;0.77;;;0.43;;
49590;SDS011;35496;-21.974;-46.800;2022-12-29T17:19:36;0.63;;;0.30;;
49590;SDS011;35496;-21.974;-46.800;2022-12-29T17:22:18;0.40;;;0.40;;
49590;SDS011;35496;-21.974;-46.800;2022-12-29T17:24:47;0.30;;;0.30;;